createdAt,value
2017-12-24T00:00:18.197Z,85.50
2017-12-24T00:02:47.422Z,85.70
2017-12-24T00:05:16.669Z,84.70
2017-12-24T00:07:45.943Z,84.80
2017-12-24T00:10:15.178Z,84.70
2017-12-24T00:12:44.440Z,84.30
2017-12-24T00:15:13.683Z,84.20
2017-12-24T00:17:42.997Z,84.30
2017-12-24T00:20:13.035Z,85.10
2017-12-24T00:22:42.300Z,85.00
2017-12-24T00:25:11.538Z,84.80
2017-12-24T00:27:40.811Z,84.90
2017-12-24T00:30:10.842Z,84.80
2017-12-24T00:32:40.099Z,84.70
2017-12-24T00:35:09.370Z,85.00
2017-12-24T00:37:38.632Z,85.20
2017-12-24T00:40:08.677Z,84.60
2017-12-24T00:42:37.930Z,84.60
2017-12-24T00:45:07.194Z,84.60
2017-12-24T00:47:36.422Z,84.70
2017-12-24T00:50:05.672Z,84.50
2017-12-24T00:52:34.944Z,84.20
2017-12-24T00:55:04.960Z,84.50
2017-12-24T00:57:34.992Z,84.80
2017-12-24T01:00:04.263Z,84.80
2017-12-24T01:02:33.511Z,83.10
2017-12-24T01:05:03.104Z,83.90
2017-12-24T01:07:33.085Z,83.70
2017-12-24T01:10:02.365Z,83.70
2017-12-24T01:12:31.608Z,83.60
2017-12-24T01:15:00.900Z,84.00
2017-12-24T01:17:30.134Z,84.00
2017-12-24T01:19:59.416Z,83.50
2017-12-24T01:22:28.671Z,83.90
2017-12-24T01:24:57.939Z,84.30
2017-12-24T01:27:27.199Z,84.50
2017-12-24T01:29:57.259Z,83.50
2017-12-24T01:32:26.514Z,83.50
2017-12-24T01:34:55.773Z,84.00
2017-12-24T01:37:25.031Z,83.70
2017-12-24T01:39:54.353Z,83.40
2017-12-24T01:42:24.118Z,83.90
2017-12-24T01:44:54.158Z,84.10
2017-12-24T01:47:23.429Z,84.10
2017-12-24T01:49:52.683Z,83.60
2017-12-24T01:52:21.945Z,83.90
2017-12-24T01:54:52.706Z,83.60
2017-12-24T01:57:22.738Z,83.40
2017-12-24T01:59:52.027Z,83.40
2017-12-24T02:02:21.289Z,83.30
2017-12-24T02:04:51.319Z,83.60
2017-12-24T02:07:21.573Z,83.60
2017-12-24T02:09:50.916Z,84.00
2017-12-24T02:12:20.173Z,83.90
2017-12-24T02:14:49.428Z,83.80
2017-12-24T02:17:19.474Z,84.20
2017-12-24T02:19:48.755Z,84.20
2017-12-24T02:22:18.042Z,84.20
2017-12-24T02:24:48.046Z,84.70
2017-12-24T02:27:18.227Z,84.30
2017-12-24T02:29:47.528Z,84.40
2017-12-24T02:32:16.784Z,84.00
2017-12-24T02:34:47.656Z,84.00
2017-12-24T02:37:16.924Z,84.00
2017-12-24T02:39:46.959Z,84.10
2017-12-24T02:42:16.217Z,84.10
2017-12-24T02:44:45.475Z,84.00
2017-12-24T02:47:14.814Z,83.50
2017-12-24T02:49:44.095Z,83.70
2017-12-24T02:52:13.352Z,83.90
2017-12-24T02:54:42.642Z,84.20
2017-12-24T02:57:12.664Z,83.80
2017-12-24T02:59:42.716Z,83.80
2017-12-24T03:02:15.394Z,83.70
2017-12-24T03:04:44.679Z,83.70
2017-12-24T03:07:13.938Z,83.80
2017-12-24T03:09:43.957Z,83.60
2017-12-24T03:12:14.001Z,83.70
2017-12-24T03:14:43.251Z,83.70
2017-12-24T03:17:12.519Z,83.60
2017-12-24T03:19:41.784Z,83.20
2017-12-24T03:22:11.811Z,83.30
2017-12-24T03:24:41.843Z,83.70
2017-12-24T03:27:11.323Z,83.70
2017-12-24T03:29:40.618Z,83.70
2017-12-24T03:32:10.461Z,83.70
2017-12-24T03:34:40.486Z,83.30
2017-12-24T03:37:09.764Z,83.30
2017-12-24T03:39:39.020Z,83.30
2017-12-24T03:42:08.274Z,84.00
2017-12-24T03:44:37.556Z,84.50
2017-12-24T03:47:07.573Z,84.30
2017-12-24T03:49:37.608Z,85.10
2017-12-24T03:52:06.871Z,85.10
2017-12-24T03:54:36.118Z,85.30
2017-12-24T03:57:05.406Z,84.90
2017-12-24T03:59:34.663Z,84.30
2017-12-24T04:02:03.917Z,84.00
2017-12-24T04:04:33.205Z,84.50
2017-12-24T04:07:02.432Z,84.60
2017-12-24T04:09:31.688Z,85.20
2017-12-24T04:12:00.947Z,85.20
2017-12-24T04:14:30.204Z,84.30
2017-12-24T04:16:59.469Z,84.80
2017-12-24T04:19:29.482Z,85.10
2017-12-24T04:21:59.510Z,84.50
2017-12-24T04:24:29.530Z,84.60
2017-12-24T04:26:59.548Z,84.70
2017-12-24T04:29:29.571Z,83.90
2017-12-24T04:31:58.831Z,83.90
2017-12-24T04:34:28.069Z,84.00
2017-12-24T04:36:57.338Z,84.20
2017-12-24T04:39:26.598Z,84.30
2017-12-24T04:41:55.859Z,84.30
2017-12-24T04:44:25.127Z,84.10
2017-12-24T04:46:54.382Z,83.90
2017-12-24T04:49:23.628Z,84.00
2017-12-24T04:51:52.911Z,84.30
2017-12-24T04:54:22.144Z,84.20
2017-12-24T04:56:51.412Z,84.00
2017-12-24T04:59:20.679Z,84.10
2017-12-24T05:01:49.921Z,83.60
2017-12-24T05:04:19.166Z,83.80
2017-12-24T05:06:48.453Z,83.60
2017-12-24T05:09:17.760Z,83.60
2017-12-24T05:11:47.000Z,83.20
2017-12-24T05:14:16.826Z,83.70
2017-12-24T05:16:46.117Z,83.70
2017-12-24T05:19:15.361Z,83.70
2017-12-24T05:21:45.382Z,83.30
2017-12-24T05:24:15.410Z,83.20
2017-12-24T05:26:44.666Z,83.20
2017-12-24T05:29:13.939Z,83.30
2017-12-24T05:31:43.193Z,83.90
2017-12-24T05:34:13.212Z,83.60
2017-12-24T05:36:43.237Z,83.50
2017-12-24T05:39:13.286Z,83.50
2017-12-24T05:41:42.555Z,83.50
2017-12-24T05:44:11.798Z,83.60
2017-12-24T05:46:41.057Z,83.20
2017-12-24T05:49:10.329Z,83.20
2017-12-24T05:51:39.582Z,83.20
2017-12-24T05:54:09.616Z,83.70
2017-12-24T05:56:38.863Z,84.40
2017-12-24T05:59:08.896Z,84.50
2017-12-24T06:01:38.149Z,84.40
2017-12-24T06:04:07.488Z,84.40
2017-12-24T06:06:36.733Z,84.60
2017-12-24T06:09:05.937Z,84.80
2017-12-24T06:11:35.205Z,84.80
2017-12-24T06:14:04.470Z,84.20
2017-12-24T06:16:34.504Z,84.60
2017-12-24T06:19:03.772Z,85.30
2017-12-24T06:21:33.042Z,84.70
2017-12-24T06:24:02.286Z,85.20
2017-12-24T06:26:32.314Z,85.60
2017-12-24T06:29:01.561Z,85.50
2017-12-24T06:31:30.822Z,86.20
2017-12-24T06:34:00.093Z,85.90
2017-12-24T06:36:29.353Z,86.10
2017-12-24T06:38:58.605Z,86.10
2017-12-24T06:41:27.856Z,86.90
2017-12-24T06:43:58.078Z,86.80
2017-12-24T06:46:27.319Z,86.60
2017-12-24T06:48:57.354Z,85.30
2017-12-24T06:51:26.648Z,85.30
2017-12-24T06:53:56.678Z,85.10
2017-12-24T06:56:25.947Z,85.10
2017-12-24T06:58:55.960Z,84.20
2017-12-24T07:01:26.037Z,84.30
2017-12-24T07:03:55.313Z,84.30
2017-12-24T07:06:24.562Z,84.90
2017-12-24T07:08:53.857Z,84.80
2017-12-24T07:11:23.116Z,83.80
2017-12-24T07:13:52.455Z,82.70
2017-12-24T07:16:21.717Z,82.60
2017-12-24T07:18:50.979Z,82.70
2017-12-24T07:21:20.278Z,83.00
2017-12-24T07:23:50.307Z,82.90
2017-12-24T07:26:19.575Z,82.90
2017-12-24T07:28:48.848Z,82.90
2017-12-24T07:31:18.103Z,82.90
2017-12-24T07:33:48.117Z,82.30
2017-12-24T07:36:18.161Z,82.00
2017-12-24T07:38:47.418Z,81.90
2017-12-24T07:41:16.684Z,82.20
2017-12-24T07:43:45.935Z,83.20
2017-12-24T07:46:15.984Z,82.50
2017-12-24T07:48:45.237Z,82.50
2017-12-24T07:51:14.514Z,82.50
2017-12-24T07:53:43.814Z,82.40
2017-12-24T07:56:13.069Z,82.30
2017-12-24T07:58:42.321Z,81.70
2017-12-24T08:01:11.576Z,81.50
2017-12-24T08:03:40.882Z,81.90
2017-12-24T08:06:10.136Z,82.50
2017-12-24T08:08:40.161Z,81.90
2017-12-24T08:11:10.192Z,82.10
2017-12-24T08:13:39.449Z,82.10
2017-12-24T08:16:08.734Z,82.70
2017-12-24T08:18:37.977Z,82.50
2017-12-24T08:21:08.007Z,82.10
2017-12-24T08:23:38.013Z,82.20
2017-12-24T08:26:07.304Z,82.20
2017-12-24T08:28:36.544Z,82.50
2017-12-24T08:31:05.807Z,82.60
2017-12-24T08:33:35.831Z,82.30
2017-12-24T08:36:05.856Z,82.70
2017-12-24T08:38:35.895Z,82.30
2017-12-24T08:41:05.156Z,82.30
2017-12-24T08:43:34.416Z,81.50
2017-12-24T08:46:03.671Z,81.70
2017-12-24T08:48:33.704Z,81.50
2017-12-24T08:51:02.941Z,81.50
2017-12-24T08:53:32.207Z,81.50
2017-12-24T08:56:01.469Z,81.50
2017-12-24T08:58:31.480Z,80.50
2017-12-24T09:01:01.520Z,79.80
2017-12-24T09:03:30.770Z,79.80
2017-12-24T09:06:00.043Z,80.00
2017-12-24T09:08:29.293Z,80.50
2017-12-24T09:10:58.530Z,80.70
2017-12-24T09:13:27.878Z,80.10
2017-12-24T09:15:57.065Z,80.50
2017-12-24T09:18:26.338Z,79.80
2017-12-24T09:20:55.608Z,79.50
2017-12-24T09:23:25.778Z,79.90
2017-12-24T09:25:55.873Z,79.90
2017-12-24T09:28:25.147Z,79.80
2017-12-24T09:30:55.189Z,80.30
2017-12-24T09:33:24.437Z,80.30
2017-12-24T09:35:53.691Z,79.40
2017-12-24T09:38:22.974Z,79.90
2017-12-24T09:40:52.223Z,79.30
2017-12-24T09:43:22.941Z,79.30
2017-12-24T09:45:52.206Z,79.40
2017-12-24T09:48:21.647Z,80.00
2017-12-24T09:50:51.604Z,80.20
2017-12-24T09:53:21.618Z,79.70
2017-12-24T09:55:56.626Z,79.70
2017-12-24T09:58:31.755Z,79.60
2017-12-24T10:01:02.801Z,79.10
2017-12-24T10:03:32.000Z,79.20
2017-12-24T10:06:01.258Z,78.20
2017-12-24T10:08:30.535Z,78.20
2017-12-24T10:10:59.817Z,78.00
2017-12-24T10:13:29.056Z,77.90
2017-12-24T10:15:58.305Z,78.20
2017-12-24T10:18:27.586Z,77.60
2017-12-24T10:20:56.847Z,77.00
2017-12-24T10:23:26.090Z,77.10
2017-12-24T10:25:55.393Z,77.70
2017-12-24T10:28:24.667Z,77.20
2017-12-24T10:30:53.920Z,77.20
2017-12-24T10:33:23.948Z,77.70
2017-12-24T10:35:53.962Z,77.90
2017-12-24T10:38:23.977Z,77.20
2017-12-24T10:40:53.230Z,77.20
2017-12-24T10:43:23.162Z,76.50
2017-12-24T10:45:52.430Z,76.70
2017-12-24T10:48:21.696Z,76.00
2017-12-24T10:50:50.932Z,75.60
2017-12-24T10:53:20.165Z,75.90
2017-12-24T10:55:50.370Z,76.10
2017-12-24T10:58:19.601Z,75.40
2017-12-24T11:00:48.857Z,75.50
2017-12-24T11:03:18.109Z,76.20
2017-12-24T11:05:48.121Z,75.00
2017-12-24T11:08:18.126Z,75.50
2017-12-24T11:10:47.359Z,75.40
2017-12-24T11:13:16.671Z,75.50
2017-12-24T11:15:45.939Z,75.90
2017-12-24T11:18:15.208Z,75.70
2017-12-24T11:20:44.440Z,75.70
2017-12-24T11:23:14.498Z,75.60
2017-12-24T11:25:43.828Z,76.30
2017-12-24T11:28:13.094Z,75.60
2017-12-24T11:30:42.342Z,74.50
2017-12-24T11:33:12.535Z,73.50
2017-12-24T11:35:41.785Z,73.40
2017-12-24T11:38:11.196Z,73.00
2017-12-24T11:40:40.454Z,73.30
2017-12-24T11:43:09.702Z,72.90
2017-12-24T11:45:38.936Z,72.40
2017-12-24T11:48:08.820Z,72.70
2017-12-24T11:50:38.082Z,73.20
2017-12-24T11:53:08.119Z,73.00
2017-12-24T11:55:37.383Z,73.00
2017-12-24T11:58:06.619Z,73.10
2017-12-24T12:00:35.902Z,72.70
2017-12-24T12:03:05.919Z,73.70
2017-12-24T12:05:35.941Z,73.00
2017-12-24T12:08:05.958Z,72.70
2017-12-24T12:10:35.991Z,72.40
2017-12-24T12:13:06.113Z,72.40
2017-12-24T12:15:35.364Z,73.10
2017-12-24T12:18:04.623Z,74.00
2017-12-24T12:20:33.870Z,73.60
2017-12-24T12:23:03.154Z,73.70
2017-12-24T12:25:32.420Z,73.10
2017-12-24T12:28:01.674Z,73.10
2017-12-24T12:30:30.935Z,73.30
2017-12-24T12:33:00.181Z,73.70
2017-12-24T12:35:30.220Z,72.50
2017-12-24T12:37:59.486Z,72.50
2017-12-24T12:40:28.741Z,72.90
2017-12-24T12:42:57.998Z,72.30
2017-12-24T12:45:28.018Z,73.70
2017-12-24T12:47:58.059Z,73.10
2017-12-24T12:50:27.316Z,73.20
2017-12-24T12:52:56.570Z,73.20
2017-12-24T12:55:25.804Z,73.00
2017-12-24T12:57:55.078Z,73.70
2017-12-24T13:00:24.326Z,73.80
2017-12-24T13:02:54.375Z,73.50
2017-12-24T13:05:23.649Z,73.30
2017-12-24T13:07:53.675Z,72.70
2017-12-24T13:10:22.936Z,72.70
2017-12-24T13:12:52.199Z,73.20
2017-12-24T13:15:21.441Z,73.00
2017-12-24T13:17:51.223Z,72.70
2017-12-24T13:20:20.502Z,73.20
2017-12-24T13:22:49.773Z,73.40
2017-12-24T13:25:19.033Z,72.80
2017-12-24T13:27:48.324Z,73.40
2017-12-24T13:30:17.597Z,72.90
2017-12-24T13:32:46.862Z,72.90
2017-12-24T13:35:16.899Z,73.10
2017-12-24T13:37:46.157Z,73.10
2017-12-24T13:40:15.439Z,73.20
2017-12-24T13:42:44.669Z,73.60
2017-12-24T13:45:13.932Z,73.60
2017-12-24T13:47:43.193Z,73.20
2017-12-24T13:50:13.211Z,74.00
2017-12-24T13:52:42.475Z,74.00
2017-12-24T13:55:11.743Z,73.50
2017-12-24T13:57:41.012Z,73.10
2017-12-24T14:00:11.063Z,74.00
2017-12-24T14:02:40.326Z,74.00
2017-12-24T14:05:10.340Z,76.90
2017-12-24T14:07:40.358Z,77.50
2017-12-24T14:10:10.379Z,77.80
2017-12-24T14:12:40.435Z,78.40
2017-12-24T14:15:09.693Z,78.40
2017-12-24T14:17:38.939Z,78.90
2017-12-24T14:20:08.195Z,79.10
2017-12-24T14:22:38.221Z,79.90
2017-12-24T14:25:07.463Z,79.90
2017-12-24T14:27:36.723Z,79.70
2017-12-24T14:30:05.962Z,79.80
2017-12-24T14:32:35.201Z,80.10
2017-12-24T14:35:04.548Z,80.00
2017-12-24T14:37:33.806Z,80.40
2017-12-24T14:40:03.064Z,80.60
2017-12-24T14:42:32.307Z,80.80
2017-12-24T14:45:02.350Z,81.80
2017-12-24T14:47:31.605Z,81.00
2017-12-24T14:50:00.855Z,81.20
2017-12-24T14:52:30.235Z,81.10
2017-12-24T14:54:59.483Z,81.00
2017-12-24T14:57:28.735Z,81.40
2017-12-24T14:59:57.999Z,81.10
2017-12-24T15:02:27.258Z,81.10
2017-12-24T15:04:56.503Z,81.50
2017-12-24T15:07:25.763Z,81.50
2017-12-24T15:09:55.009Z,81.40
2017-12-24T15:12:24.251Z,81.70
2017-12-24T15:14:53.522Z,81.60
2017-12-24T15:17:22.765Z,81.50
2017-12-24T15:19:52.011Z,81.20
2017-12-24T15:22:22.036Z,81.10
2017-12-24T15:24:52.048Z,81.10
2017-12-24T15:27:22.063Z,80.80
2017-12-24T15:29:52.083Z,80.30
2017-12-24T15:32:22.582Z,80.30
2017-12-24T15:34:51.847Z,80.40
2017-12-24T15:37:21.107Z,80.00
2017-12-24T15:39:51.150Z,80.10
2017-12-24T15:42:20.459Z,80.10
2017-12-24T15:44:49.680Z,79.20
2017-12-24T15:47:18.918Z,79.50
2017-12-24T15:49:48.177Z,78.50
2017-12-24T15:52:17.405Z,79.10
2017-12-24T15:54:47.448Z,79.60
2017-12-24T15:57:16.711Z,79.60
2017-12-24T15:59:46.898Z,79.50
2017-12-24T16:02:16.145Z,79.60
2017-12-24T16:04:45.394Z,79.40
2017-12-24T16:07:14.876Z,80.00
2017-12-24T16:09:44.126Z,79.30
2017-12-24T16:12:13.377Z,79.20
2017-12-24T16:14:42.619Z,78.80
2017-12-24T16:17:11.877Z,78.90
2017-12-24T16:19:41.139Z,78.70
2017-12-24T16:22:10.383Z,78.50
2017-12-24T16:24:39.639Z,78.90
2017-12-24T16:27:08.888Z,78.30
2017-12-24T16:29:38.141Z,78.60
2017-12-24T16:32:08.166Z,79.10
2017-12-24T16:34:38.172Z,78.30
2017-12-24T16:37:07.428Z,78.30
2017-12-24T16:39:36.667Z,78.10
2017-12-24T16:42:05.914Z,78.30
2017-12-24T16:44:35.164Z,78.10
2017-12-24T16:47:04.412Z,77.90
2017-12-24T16:49:33.684Z,78.20
2017-12-24T16:52:02.927Z,78.00
2017-12-24T16:54:32.185Z,77.70
2017-12-24T16:57:02.216Z,77.90
2017-12-24T16:59:31.453Z,77.90
2017-12-24T17:02:00.703Z,78.50
2017-12-24T17:04:30.709Z,78.40
2017-12-24T17:07:00.738Z,78.20
2017-12-24T17:09:30.016Z,78.20
2017-12-24T17:11:59.238Z,78.40
2017-12-24T17:14:28.486Z,78.20
2017-12-24T17:16:57.726Z,78.70
2017-12-24T17:19:26.974Z,78.80
2017-12-24T17:21:56.296Z,78.60
2017-12-24T17:24:25.617Z,78.70
2017-12-24T17:26:54.844Z,78.00
2017-12-24T17:29:24.100Z,77.90
2017-12-24T17:31:53.320Z,78.00
2017-12-24T17:34:22.558Z,77.90
2017-12-24T17:36:51.797Z,78.10
2017-12-24T17:39:21.045Z,78.50
2017-12-24T17:41:50.336Z,78.50
2017-12-24T17:44:19.582Z,77.60
2017-12-24T17:46:48.826Z,77.90
2017-12-24T17:49:18.069Z,77.90
2017-12-24T17:51:47.325Z,77.90
2017-12-24T17:54:16.573Z,77.70
2017-12-24T17:56:46.545Z,77.50
2017-12-24T17:59:15.800Z,77.60
2017-12-24T18:01:45.058Z,77.40
2017-12-24T18:04:14.333Z,77.40
2017-12-24T18:06:43.568Z,77.40
2017-12-24T18:09:12.895Z,77.90
2017-12-24T18:11:42.204Z,78.10
2017-12-24T18:14:11.451Z,77.90
2017-12-24T18:16:40.746Z,77.50
2017-12-24T18:19:10.087Z,77.20
2017-12-24T18:21:39.827Z,77.10
2017-12-24T18:24:09.132Z,77.30
2017-12-24T18:26:39.133Z,77.00
2017-12-24T18:29:08.393Z,76.90
2017-12-24T18:31:37.657Z,76.80
2017-12-24T18:34:07.784Z,77.10
2017-12-24T18:36:37.011Z,77.10
2017-12-24T18:39:06.254Z,77.10
2017-12-24T18:41:35.520Z,77.30
2017-12-24T18:44:04.803Z,76.60
2017-12-24T18:46:34.046Z,77.40
2017-12-24T18:49:03.300Z,77.70
2017-12-24T18:51:32.553Z,78.10
2017-12-24T18:54:02.596Z,77.20
2017-12-24T18:56:31.868Z,77.20
2017-12-24T18:59:01.114Z,77.20
2017-12-24T19:01:30.363Z,77.50
2017-12-24T19:03:59.610Z,77.20
2017-12-24T19:06:28.927Z,77.70
2017-12-24T19:08:58.879Z,77.30
2017-12-24T19:11:28.138Z,77.30
2017-12-24T19:13:57.365Z,77.00
2017-12-24T19:16:26.617Z,77.50
2017-12-24T19:18:55.864Z,77.40
2017-12-24T19:21:25.107Z,77.40
2017-12-24T19:23:54.386Z,77.20
2017-12-24T19:26:24.397Z,77.20
2017-12-24T19:28:53.734Z,77.20
2017-12-24T19:31:23.845Z,77.70
2017-12-24T19:33:53.079Z,77.70
2017-12-24T19:36:22.544Z,77.40
2017-12-24T19:38:51.794Z,77.80
2017-12-24T19:41:21.033Z,77.20
2017-12-24T19:43:50.422Z,77.10
2017-12-24T19:46:19.698Z,76.90
2017-12-24T19:48:48.951Z,76.90
2017-12-24T19:51:18.187Z,76.70
2017-12-24T19:53:55.160Z,77.20
2017-12-24T19:56:24.491Z,77.10
2017-12-24T19:58:53.737Z,77.50
2017-12-24T20:01:23.063Z,76.60
2017-12-24T20:03:52.284Z,76.80
2017-12-24T20:06:21.522Z,76.80
2017-12-24T20:08:50.810Z,75.90
2017-12-24T20:11:20.143Z,75.70
2017-12-24T20:13:50.224Z,74.80
2017-12-24T20:16:20.231Z,75.00
2017-12-24T20:18:50.250Z,74.40
2017-12-24T20:21:20.257Z,74.40
2017-12-24T20:23:49.511Z,74.40
2017-12-24T20:26:18.748Z,74.80
2017-12-24T20:28:48.013Z,74.80
2017-12-24T20:31:17.235Z,74.80
2017-12-24T20:33:46.555Z,74.60
2017-12-24T20:36:15.806Z,74.90
2017-12-24T20:38:45.071Z,74.80
2017-12-24T20:41:15.117Z,75.00
2017-12-24T20:43:44.352Z,75.30
2017-12-24T20:46:13.612Z,75.20
2017-12-24T20:48:42.875Z,75.30
2017-12-24T20:51:12.155Z,75.50
2017-12-24T20:53:41.507Z,75.80
2017-12-24T20:56:11.563Z,75.50
2017-12-24T20:58:42.618Z,75.40
2017-12-24T21:01:11.918Z,75.60
2017-12-24T21:03:41.163Z,75.50
2017-12-24T21:06:10.401Z,76.00
2017-12-24T21:08:39.648Z,76.20
2017-12-24T21:11:08.885Z,76.60
2017-12-24T21:13:38.160Z,76.20
2017-12-24T21:16:07.512Z,76.00
2017-12-24T21:18:36.748Z,76.00
2017-12-24T21:21:05.997Z,76.20
2017-12-24T21:23:35.237Z,76.30
2017-12-24T21:26:05.236Z,76.30
2017-12-24T21:28:34.486Z,76.30
2017-12-24T21:31:03.760Z,76.30
2017-12-24T21:33:33.769Z,76.70
2017-12-24T21:36:03.775Z,77.30
2017-12-24T21:38:33.037Z,77.30
2017-12-24T21:41:02.293Z,77.10
2017-12-24T21:43:32.306Z,77.10
2017-12-24T21:46:02.379Z,77.10
2017-12-24T21:48:31.621Z,77.10
2017-12-24T21:51:01.646Z,76.90
2017-12-24T21:53:30.894Z,76.80
2017-12-24T21:56:00.153Z,77.10
2017-12-24T21:58:30.036Z,76.80
2017-12-24T22:00:59.291Z,76.50
2017-12-24T22:03:28.533Z,76.20
2017-12-24T22:05:58.555Z,75.60
2017-12-24T22:08:28.572Z,76.00
2017-12-24T22:10:58.577Z,75.80
2017-12-24T22:13:27.809Z,75.80
2017-12-24T22:15:57.054Z,75.80
2017-12-24T22:18:26.315Z,75.40
2017-12-24T22:20:55.553Z,75.30
2017-12-24T22:23:24.810Z,75.40
2017-12-24T22:25:54.056Z,75.40
2017-12-24T22:28:23.296Z,75.50
2017-12-24T22:30:53.335Z,76.00
2017-12-24T22:33:22.554Z,76.00
2017-12-24T22:35:51.820Z,75.80
2017-12-24T22:38:21.056Z,75.90
2017-12-24T22:40:50.306Z,76.00
2017-12-24T22:43:20.321Z,76.10
2017-12-24T22:45:49.592Z,76.10
2017-12-24T22:48:18.841Z,76.30
2017-12-24T22:50:48.079Z,76.30
2017-12-24T22:53:17.338Z,76.20
2017-12-24T22:55:46.586Z,76.70
2017-12-24T22:58:15.909Z,76.20
2017-12-24T23:00:45.935Z,76.90
2017-12-24T23:03:15.208Z,76.80
2017-12-24T23:05:44.430Z,76.50
2017-12-24T23:08:14.539Z,76.70
2017-12-24T23:10:43.709Z,76.70
2017-12-24T23:13:13.041Z,76.70
2017-12-24T23:15:43.056Z,76.90
2017-12-24T23:18:13.056Z,76.80
2017-12-24T23:20:42.849Z,76.80
2017-12-24T23:23:12.115Z,77.00
2017-12-24T23:25:41.364Z,76.40
2017-12-24T23:28:10.614Z,77.00
2017-12-24T23:30:39.852Z,76.70
2017-12-24T23:33:09.114Z,76.60
2017-12-24T23:35:38.404Z,76.50
2017-12-24T23:38:07.656Z,77.20
2017-12-24T23:40:36.913Z,77.70
2017-12-24T23:43:06.172Z,77.00
2017-12-24T23:45:35.424Z,77.10
2017-12-24T23:48:04.671Z,77.60
2017-12-24T23:50:34.714Z,77.10
2017-12-24T23:53:04.723Z,77.00
2017-12-24T23:55:34.758Z,76.40
2017-12-24T23:58:04.023Z,76.30
